Time;durP1;ratioP1;P1;durP2;ratioP2;P2;SDS_P1;SDS_P2;PMS_P1;PMS_P2;Temp;Humidity;BMP_temperature;BMP_pressure;BME280_temperature;BME280_humidity;BME280_pressure;Samples;Min_cycle;Max_cycle;Signal;HPM_P1;HPM_P2
2023/04/12 00:02:21;;;;;;;5.97;2.67;;;;;;;7.29;71.94;100349.28;5027550;28;20036;-73
2023/04/12 00:04:54;;;;;;;6.28;3.33;;;;;;;7.31;71.95;100332.66;5026683;28;20475;-72
2023/04/12 00:07:29;;;;;;;5.68;3.10;;;;;;;7.33;71.93;100345.50;5023813;28;20033;-73
2023/04/12 00:09:54;;;;;;;8.32;3.90;;;;;;;7.29;72.48;100344.91;5025647;28;20159;-73
2023/04/12 00:12:20;;;;;;;6.50;3.88;;;;;;;7.27;72.01;100351.19;5027150;28;20383;-73
2023/04/12 00:14:45;;;;;;;5.28;4.20;;;;;;;7.22;72.41;100346.38;5026402;28;20040;-72
2023/04/12 00:17:11;;;;;;;5.75;3.40;;;;;;;7.25;72.36;100350.47;5025251;28;20674;-73
2023/04/12 00:19:40;;;;;;;6.70;2.95;;;;;;;7.33;71.99;100340.31;5021024;28;20044;-72
2023/04/12 00:22:07;;;;;;;8.07;2.13;;;;;;;7.48;71.16;100333.84;5029359;28;20026;-73
2023/04/12 00:24:33;;;;;;;7.13;2.88;;;;;;;7.55;70.84;100337.59;5027018;28;20107;-73
2023/04/12 00:27:00;;;;;;;6.18;3.67;;;;;;;7.54;71.13;100341.13;5022490;28;20531;-73
2023/04/12 00:29:26;;;;;;;3.38;2.33;;;;;;;7.56;70.79;100336.59;5027291;28;20037;-73
2023/04/12 00:31:52;;;;;;;4.07;2.47;;;;;;;7.62;71.02;100335.28;5024003;28;20081;-72
2023/04/12 00:34:17;;;;;;;6.57;2.88;;;;;;;7.65;70.90;100330.66;5026567;28;20056;-73
2023/04/12 00:36:42;;;;;;;4.00;2.60;;;;;;;7.66;70.76;100342.66;5022219;28;20025;-73
2023/04/12 00:39:08;;;;;;;4.50;2.47;;;;;;;7.68;71.15;100333.94;5028738;28;20041;-73
2023/04/12 00:41:36;;;;;;;5.85;2.72;;;;;;;7.63;71.38;100329.97;5035193;28;20038;-73
2023/04/12 00:44:01;;;;;;;5.72;2.13;;;;;;;7.61;71.33;100334.47;5035553;28;20033;-73
2023/04/12 00:46:28;;;;;;;4.57;2.28;;;;;;;7.62;71.15;100336.09;5026893;28;20041;-73
2023/04/12 00:48:55;;;;;;;4.63;2.38;;;;;;;7.60;71.26;100332.00;5023430;28;20037;-73
2023/04/12 00:51:21;;;;;;;3.10;2.35;;;;;;;7.55;71.85;100335.00;5025686;28;20041;-73
2023/04/12 00:53:47;;;;;;;6.97;3.08;;;;;;;7.36;72.49;100342.66;5027095;28;20034;-73
2023/04/12 00:56:13;;;;;;;4.03;2.97;;;;;;;7.04;73.53;100336.72;5028434;28;20045;-73
2023/04/12 00:58:38;;;;;;;4.80;3.22;;;;;;;6.89;74.26;100331.81;5026044;28;20404;-73
2023/04/12 01:01:04;;;;;;;6.95;3.53;;;;;;;6.76;74.59;100333.75;5021781;28;20033;-73
2023/04/12 01:03:30;;;;;;;6.30;2.90;;;;;;;6.64;75.51;100327.78;5028788;28;20059;-73
2023/04/12 01:06:19;;;;;;;5.00;3.45;;;;;;;6.48;76.86;100322.19;5027194;28;20056;-73
2023/04/12 01:09:08;;;;;;;4.30;2.88;;;;;;;6.50;76.62;100319.47;5029773;28;20052;-73
2023/04/12 01:11:56;;;;;;;4.40;3.25;;;;;;;6.63;75.66;100320.94;5035919;28;20522;-73
2023/04/12 01:14:45;;;;;;;5.13;3.30;;;;;;;6.69;76.03;100326.59;4983371;28;20124;-73
2023/04/12 01:17:16;;;;;;;4.95;2.65;;;;;;;6.80;74.82;100324.78;4979421;28;20046;-73
2023/04/12 01:20:12;;;;;;;3.38;2.55;;;;;;;6.80;76.15;100334.31;4983770;28;20053;-73
2023/04/12 01:23:25;;;;;;;6.68;3.40;;;;;;;6.73;77.13;100320.22;4986457;28;20034;-74
2023/04/12 01:26:07;;;;;;;5.97;2.97;;;;;;;6.58;77.25;100317.13;4940239;28;20049;-73
2023/04/12 01:28:36;;;;;;;6.05;2.92;;;;;;;6.57;77.92;100310.28;4988411;28;20030;-73
2023/04/12 01:31:03;;;;;;;6.50;4.05;;;;;;;6.54;77.75;100306.19;4986304;28;20121;-73
2023/04/12 01:33:30;;;;;;;6.00;4.30;;;;;;;6.43;77.26;100305.38;4981414;28;20046;-73
2023/04/12 01:36:01;;;;;;;6.03;4.43;;;;;;;6.44;77.00;100297.50;4973119;28;21112;-74
2023/04/12 01:38:28;;;;;;;6.03;3.88;;;;;;;6.59;76.32;100292.88;4986336;28;20034;-74
2023/04/12 01:40:54;;;;;;;6.22;3.80;;;;;;;6.74;76.46;100303.75;4992546;28;20487;-73
2023/04/12 01:43:20;;;;;;;4.95;3.17;;;;;;;6.94;76.56;100293.41;4986923;28;20456;-74
2023/04/12 01:45:45;;;;;;;4.88;3.03;;;;;;;7.12;75.35;100293.66;4999580;28;20050;-73
2023/04/12 01:48:11;;;;;;;3.08;2.25;;;;;;;7.24;75.42;100302.19;4988817;28;20042;-73
2023/04/12 01:50:52;;;;;;;5.68;3.25;;;;;;;7.31;75.59;100300.75;4998886;28;20042;-73
2023/04/12 01:53:23;;;;;;;6.82;3.25;;;;;;;7.39;74.92;100300.09;5022619;28;20060;-73
2023/04/12 01:55:51;;;;;;;3.47;2.05;;;;;;;7.44;74.50;100290.19;5026528;28;20178;-72
2023/04/12 01:58:20;;;;;;;3.25;2.30;;;;;;;7.48;74.58;100287.19;5028871;28;20048;-73
2023/04/12 02:00:48;;;;;;;3.35;2.30;;;;;;;7.50;74.48;100290.47;5024160;28;20156;-73
2023/04/12 02:03:14;;;;;;;3.33;2.58;;;;;;;7.47;74.65;100290.75;5025332;28;20054;-74
2023/04/12 02:05:40;;;;;;;5.15;2.65;;;;;;;7.47;75.02;100293.34;5028657;28;20139;-73
2023/04/12 02:08:06;;;;;;;5.57;2.30;;;;;;;7.51;74.72;100301.69;5025720;28;20503;-74
2023/04/12 02:10:32;;;;;;;4.38;3.30;;;;;;;7.52;74.69;100298.94;5028390;28;20030;-73
2023/04/12 02:12:59;;;;;;;4.18;2.38;;;;;;;7.54;74.77;100297.06;5026616;28;20033;-72
2023/04/12 02:15:26;;;;;;;4.45;2.60;;;;;;;7.61;74.27;100308.53;5029104;28;20066;-73
2023/04/12 02:17:52;;;;;;;5.13;2.22;;;;;;;7.66;73.97;100306.38;5024595;28;20394;-74
2023/04/12 02:20:19;;;;;;;4.15;2.75;;;;;;;7.70;74.24;100308.69;5028373;28;20490;-73
2023/04/12 02:22:45;;;;;;;6.78;3.03;;;;;;;7.70;74.20;100301.75;5021808;28;20383;-73
2023/04/12 02:25:10;;;;;;;5.82;3.97;;;;;;;7.71;74.80;100302.56;5024083;28;20032;-74
2023/04/12 02:27:36;;;;;;;7.90;3.17;;;;;;;7.74;74.27;100302.31;5030663;28;20037;-73
2023/04/12 02:30:02;;;;;;;3.75;2.40;;;;;;;7.83;73.79;100298.94;5026899;28;20037;-74
2023/04/12 02:32:29;;;;;;;4.55;2.63;;;;;;;7.92;73.39;100300.75;5029537;28;20041;-74
2023/04/12 02:34:57;;;;;;;4.05;1.92;;;;;;;7.96;73.20;100294.34;5029522;28;20058;-74
2023/04/12 02:37:26;;;;;;;3.53;2.40;;;;;;;7.98;72.86;100290.69;5028098;28;20064;-74
2023/04/12 02:39:55;;;;;;;4.70;2.30;;;;;;;8.02;72.80;100291.22;5029366;28;20040;-74
2023/04/12 02:42:21;;;;;;;5.18;2.72;;;;;;;8.05;72.91;100295.31;5029567;28;20100;-74
2023/04/12 02:44:46;;;;;;;4.55;2.40;;;;;;;8.05;73.08;100290.13;5032637;28;20248;-74
2023/04/12 02:47:12;;;;;;;4.85;2.40;;;;;;;8.08;73.00;100290.69;5025367;28;20033;-74
2023/04/12 02:49:37;;;;;;;3.08;2.25;;;;;;;8.12;72.89;100292.06;5034001;28;20406;-74
2023/04/12 02:52:03;;;;;;;3.53;2.20;;;;;;;8.16;72.66;100280.44;5030267;28;20061;-74
2023/04/12 02:54:28;;;;;;;4.00;2.33;;;;;;;8.16;72.75;100283.06;5029816;28;20033;-74
2023/04/12 02:56:54;;;;;;;5.75;2.45;;;;;;;8.19;72.51;100275.00;5029702;28;20025;-74
2023/04/12 02:59:19;;;;;;;3.20;2.25;;;;;;;8.17;72.67;100269.13;5030140;28;20041;-74
2023/04/12 03:01:45;;;;;;;3.90;2.38;;;;;;;8.16;72.56;100267.47;5026976;28;20174;-74
2023/04/12 03:04:11;;;;;;;4.65;2.25;;;;;;;8.16;72.71;100262.28;5025546;28;20545;-74
2023/04/12 03:06:39;;;;;;;3.15;1.95;;;;;;;8.17;72.86;100263.94;5029604;28;20140;-74
2023/04/12 03:09:04;;;;;;;2.85;2.20;;;;;;;8.18;72.81;100260.38;5028855;28;20559;-74
2023/04/12 03:11:29;;;;;;;3.45;2.25;;;;;;;8.17;72.80;100252.72;5028056;28;20124;-74
2023/04/12 03:13:55;;;;;;;3.55;2.10;;;;;;;8.17;72.86;100255.31;5034583;28;20434;-74
2023/04/12 03:16:28;;;;;;;4.15;2.55;;;;;;;8.17;73.01;100247.53;5030846;28;20402;-74
2023/04/12 03:18:55;;;;;;;3.45;2.28;;;;;;;8.19;72.81;100262.03;5032974;28;20027;-73
2023/04/12 03:21:21;;;;;;;3.42;2.35;;;;;;;8.19;72.76;100251.63;5026919;28;20061;-73
2023/04/12 03:23:46;;;;;;;3.10;2.10;;;;;;;8.19;72.85;100251.63;5023361;28;20056;-74
2023/04/12 03:26:12;;;;;;;5.70;2.00;;;;;;;8.19;72.95;100262.03;5026505;28;20033;-73
2023/04/12 03:28:37;;;;;;;4.40;2.20;;;;;;;8.19;72.95;100256.00;5026293;28;20037;-74
2023/04/12 03:31:03;;;;;;;4.32;2.28;;;;;;;8.17;73.01;100263.09;5023620;28;20045;-73
2023/04/12 03:33:28;;;;;;;5.95;2.50;;;;;;;8.14;73.38;100261.59;5023259;28;20037;-73
2023/04/12 03:35:54;;;;;;;4.28;2.42;;;;;;;8.14;73.31;100256.41;5024000;28;20495;-74
2023/04/12 03:38:19;;;;;;;4.82;2.50;;;;;;;8.12;73.34;100253.13;5020569;28;20033;-74
2023/04/12 03:40:45;;;;;;;5.10;2.33;;;;;;;8.09;73.69;100257.75;5024665;28;20513;-73
2023/04/12 03:43:10;;;;;;;5.00;2.15;;;;;;;8.11;73.53;100253.25;5025304;28;20124;-73
2023/04/12 03:45:35;;;;;;;4.55;2.00;;;;;;;8.07;73.85;100244.91;5033960;28;20372;-73
2023/04/12 03:48:01;;;;;;;4.05;2.00;;;;;;;8.08;73.50;100248.34;5022252;28;20509;-72
2023/04/12 03:50:28;;;;;;;4.35;2.13;;;;;;;8.10;73.28;100241.25;5028109;28;20490;-73
2023/04/12 03:52:54;;;;;;;3.88;2.20;;;;;;;8.13;73.42;100244.38;5029137;28;20084;-73
2023/04/12 03:55:19;;;;;;;3.60;2.28;;;;;;;8.16;73.16;100236.34;5029005;28;20505;-73
2023/04/12 03:57:45;;;;;;;3.90;2.08;;;;;;;8.19;73.01;100243.03;5025331;28;20068;-73
2023/04/12 04:00:11;;;;;;;3.13;2.10;;;;;;;8.19;73.16;100241.25;5031816;28;20032;-73
2023/04/12 04:02:37;;;;;;;3.40;2.28;;;;;;;8.25;72.78;100240.72;5032455;28;20033;-73
2023/04/12 04:05:03;;;;;;;3.80;1.42;;;;;;;8.28;72.72;100235.25;5028685;28;20053;-73
2023/04/12 04:07:30;;;;;;;2.67;1.70;;;;;;;8.30;72.71;100235.94;5031233;28;20039;-73
2023/04/12 04:09:56;;;;;;;3.40;1.80;;;;;;;8.30;72.77;100232.53;5031091;28;20025;-73
2023/04/12 04:12:21;;;;;;;3.08;1.67;;;;;;;8.31;72.68;100231.59;5030570;28;20041;-73
2023/04/12 04:14:47;;;;;;;4.15;1.50;;;;;;;8.31;72.72;100240.19;5030685;28;20025;-73
2023/04/12 04:17:12;;;;;;;4.43;2.40;;;;;;;8.32;72.72;100241.00;5028971;28;20025;-73
2023/04/12 04:19:38;;;;;;;3.28;2.10;;;;;;;8.34;72.51;100238.31;5034186;28;20491;-73
2023/04/12 04:22:03;;;;;;;2.75;1.73;;;;;;;8.37;72.32;100225.88;5028522;28;20074;-73
2023/04/12 04:24:29;;;;;;;3.55;1.70;;;;;;;8.38;72.23;100234.50;5029005;28;20390;-73
2023/04/12 04:26:54;;;;;;;4.53;2.22;;;;;;;8.38;72.36;100224.09;5028486;28;20091;-74
2023/04/12 04:29:20;;;;;;;5.65;2.33;;;;;;;8.36;72.55;100231.22;5031963;28;20120;-72
2023/04/12 04:31:46;;;;;;;4.93;2.28;;;;;;;8.31;72.84;100229.81;5027440;28;20471;-73
2023/04/12 04:34:12;;;;;;;3.10;1.95;;;;;;;8.29;73.04;100220.50;5028128;28;20152;-74
2023/04/12 04:36:38;;;;;;;3.72;2.13;;;;;;;8.31;72.77;100221.19;5030118;28;20065;-73
2023/04/12 04:39:06;;;;;;;3.95;2.30;;;;;;;8.36;72.46;100226.84;5030112;28;20068;-74
2023/04/12 04:41:38;;;;;;;4.75;1.98;;;;;;;8.39;72.49;100216.19;5026653;28;20120;-74
2023/04/12 04:44:08;;;;;;;6.60;2.05;;;;;;;8.37;72.82;100228.47;5030397;28;20029;-74
2023/04/12 04:46:36;;;;;;;3.92;1.60;;;;;;;8.42;72.55;100233.25;5029700;28;20076;-74
2023/04/12 04:49:02;;;;;;;4.13;2.25;;;;;;;8.47;72.53;100233.69;5027974;28;20158;-74
2023/04/12 04:51:28;;;;;;;4.28;2.00;;;;;;;8.51;72.42;100228.03;5030130;28;20025;-74
2023/04/12 04:53:53;;;;;;;4.85;2.15;;;;;;;8.58;71.87;100228.31;5023980;28;20026;-75
2023/04/12 04:56:21;;;;;;;4.95;2.15;;;;;;;8.61;71.64;100225.44;5028037;28;20079;-75
2023/04/12 04:58:47;;;;;;;3.25;2.08;;;;;;;8.61;72.15;100234.06;5030459;28;20454;-75
2023/04/12 05:01:15;;;;;;;4.43;2.67;;;;;;;8.63;71.76;100228.72;5025342;28;20056;-74
2023/04/12 05:03:41;;;;;;;4.45;2.50;;;;;;;8.64;71.63;100225.19;5025177;28;20414;-75
2023/04/12 05:06:07;;;;;;;5.55;2.80;;;;;;;8.66;71.50;100223.25;5031027;28;20125;-75
2023/04/12 05:08:33;;;;;;;3.47;2.22;;;;;;;8.67;71.63;100227.50;5031135;28;20033;-74
2023/04/12 05:10:58;;;;;;;3.97;2.38;;;;;;;8.69;71.54;100230.78;5027225;28;20540;-74
2023/04/12 05:13:24;;;;;;;7.80;2.20;;;;;;;8.75;71.28;100230.22;5020381;28;20043;-75
2023/04/12 05:15:49;;;;;;;5.72;2.35;;;;;;;8.78;71.15;100229.97;5030585;28;20053;-74
2023/04/12 05:18:16;;;;;;;7.97;2.55;;;;;;;8.81;71.11;100227.09;5029410;28;20031;-74
2023/04/12 05:20:42;;;;;;;9.38;2.60;;;;;;;8.88;70.47;100222.16;5026397;28;20478;-75
2023/04/12 05:23:08;;;;;;;7.43;2.95;;;;;;;8.93;70.53;100225.97;5026910;28;20079;-75
2023/04/12 05:25:33;;;;;;;13.85;2.78;;;;;;;8.96;71.09;100223.09;5028587;28;20821;-74
2023/04/12 05:27:59;;;;;;;4.35;2.00;;;;;;;9.01;70.30;100227.84;5023246;28;20033;-75
2023/04/12 05:30:25;;;;;;;7.10;2.50;;;;;;;9.09;69.76;100229.75;5028116;28;20029;-75
2023/04/12 05:32:50;;;;;;;7.00;2.08;;;;;;;9.12;69.57;100222.50;5027502;28;20526;-75
2023/04/12 05:35:16;;;;;;;4.07;2.30;;;;;;;9.18;69.50;100223.72;5024671;28;20034;-74
2023/04/12 05:37:41;;;;;;;7.07;2.05;;;;;;;9.18;69.68;100224.53;5027840;28;20034;-75
2023/04/12 05:40:08;;;;;;;3.88;1.67;;;;;;;9.21;69.62;100223.44;5024529;28;20033;-74
2023/04/12 05:42:36;;;;;;;9.55;3.05;;;;;;;9.21;70.04;100218.22;5025320;28;20442;-74
2023/04/12 05:45:03;;;;;;;8.48;2.58;;;;;;;9.22;70.40;100210.28;5026501;28;20110;-75
2023/04/12 05:47:29;;;;;;;7.20;2.72;;;;;;;9.29;70.52;100207.94;5027652;28;20060;-74
2023/04/12 05:49:54;;;;;;;5.95;2.10;;;;;;;9.34;71.51;100205.75;5028688;28;20474;-74
2023/04/12 05:52:20;;;;;;;6.18;3.00;;;;;;;9.40;72.40;100205.19;5026527;28;20037;-74
2023/04/12 05:54:45;;;;;;;6.85;2.78;;;;;;;9.42;73.39;100216.25;5025732;28;20037;-74
2023/04/12 05:57:11;;;;;;;5.28;2.15;;;;;;;9.47;73.86;100210.59;5027544;28;20041;-74
2023/04/12 05:59:36;;;;;;;5.57;2.38;;;;;;;9.48;73.52;100220.84;5030515;28;20761;-74
2023/04/12 06:02:02;;;;;;;4.97;2.30;;;;;;;9.54;73.52;100214.25;5027048;28;20083;-74
2023/04/12 06:04:28;;;;;;;5.72;2.00;;;;;;;9.58;73.80;100216.44;5025573;28;20486;-74
2023/04/12 06:06:55;;;;;;;4.35;1.98;;;;;;;9.59;73.97;100222.47;5030257;28;20054;-74
2023/04/12 06:09:20;;;;;;;5.70;2.50;;;;;;;9.60;74.36;100224.91;5027022;28;20111;-74
2023/04/12 06:11:46;;;;;;;5.97;1.92;;;;;;;9.60;73.86;100224.91;5028397;28;20486;-74
2023/04/12 06:14:12;;;;;;;5.03;2.28;;;;;;;9.57;73.90;100214.81;5031440;28;20045;-75
2023/04/12 06:16:38;;;;;;;8.75;2.08;;;;;;;9.62;74.03;100217.78;5031888;28;20032;-74
2023/04/12 06:19:04;;;;;;;4.97;2.10;;;;;;;9.70;74.53;100219.69;5034879;28;20454;-75
2023/04/12 06:21:29;;;;;;;6.93;2.40;;;;;;;9.78;74.70;100219.78;5026957;28;21867;-75
2023/04/12 06:23:55;;;;;;;7.97;2.22;;;;;;;9.84;75.22;100219.19;5031052;28;20029;-74
2023/04/12 06:26:20;;;;;;;7.15;2.53;;;;;;;9.84;75.34;100218.38;5025652;28;20057;-75
2023/04/12 06:28:46;;;;;;;7.00;3.00;;;;;;;9.84;74.75;100226.19;5032934;28;20104;-74
2023/04/12 06:31:11;;;;;;;5.47;2.63;;;;;;;9.87;75.09;100225.88;5030821;28;20405;-75
2023/04/12 06:33:36;;;;;;;9.07;2.55;;;;;;;9.92;75.48;100218.47;5027268;28;20042;-75
2023/04/12 06:36:02;;;;;;;9.02;2.45;;;;;;;9.92;75.38;100208.84;5029844;28;20042;-76
2023/04/12 06:38:28;;;;;;;4.88;2.28;;;;;;;9.90;75.31;100203.00;5029383;28;20029;-75
2023/04/12 06:40:53;;;;;;;5.50;2.50;;;;;;;9.98;75.23;100202.25;5032360;28;20039;-75
2023/04/12 06:43:21;;;;;;;6.95;3.15;;;;;;;10.14;75.00;100212.00;5023948;28;20025;-75
2023/04/12 06:45:46;;;;;;;7.18;2.40;;;;;;;10.32;74.66;100206.84;5026804;28;20479;-75
2023/04/12 06:48:11;;;;;;;4.10;2.45;;;;;;;10.46;74.65;100211.50;5028827;28;20037;-74
2023/04/12 06:50:38;;;;;;;5.53;2.50;;;;;;;10.53;74.87;100210.75;5034100;28;20049;-75
2023/04/12 06:53:04;;;;;;;9.75;2.63;;;;;;;10.56;75.58;100212.25;5031825;28;20064;-75
2023/04/12 06:55:29;;;;;;;14.55;3.25;;;;;;;10.57;75.39;100209.50;5011092;28;20387;-75
2023/04/12 06:57:55;;;;;;;12.13;3.25;;;;;;;10.64;75.37;100204.50;5010072;28;20036;-75
2023/04/12 07:00:21;;;;;;;9.45;2.97;;;;;;;10.67;75.33;100199.00;5009806;28;20042;-75
2023/04/12 07:02:46;;;;;;;5.95;2.45;;;;;;;10.72;75.53;100201.97;5013514;28;20084;-75
2023/04/12 07:05:12;;;;;;;5.22;2.40;;;;;;;10.72;76.21;100199.34;5010256;28;20058;-75
2023/04/12 07:07:38;;;;;;;9.40;2.40;;;;;;;10.71;76.49;100200.31;5010652;28;20034;-75
2023/04/12 07:10:04;;;;;;;13.20;3.20;;;;;;;10.71;77.12;100212.53;5017085;28;20029;-75
2023/04/12 07:12:30;;;;;;;13.18;3.38;;;;;;;10.72;76.92;100208.97;5005757;28;20041;-76
2023/04/12 07:14:55;;;;;;;8.20;2.90;;;;;;;10.68;76.28;100203.22;5016392;28;20447;-75
2023/04/12 07:17:21;;;;;;;5.43;2.55;;;;;;;10.70;74.97;100198.69;5009599;28;20087;-75
2023/04/12 07:19:47;;;;;;;8.65;2.53;;;;;;;10.79;73.31;100192.56;5010607;28;20018;-74
2023/04/12 07:22:13;;;;;;;4.75;2.60;;;;;;;10.81;73.00;100190.63;5010317;28;20046;-75
2023/04/12 07:24:38;;;;;;;8.68;2.72;;;;;;;10.83;72.53;100172.25;5005268;28;20034;-74
2023/04/12 07:27:04;;;;;;;5.18;2.20;;;;;;;10.86;72.25;100177.97;5000873;28;20061;-75
2023/04/12 07:29:30;;;;;;;5.10;2.30;;;;;;;10.92;72.44;100177.31;5008127;28;20038;-76
2023/04/12 07:31:55;;;;;;;7.80;2.55;;;;;;;10.91;73.39;100183.50;5010007;28;20030;-76
2023/04/12 07:34:21;;;;;;;9.35;2.97;;;;;;;10.90;73.21;100179.25;5009906;28;20033;-76
2023/04/12 07:36:46;;;;;;;11.05;5.55;;;;;;;10.88;73.42;100175.19;5010723;28;20025;-76
2023/04/12 07:39:12;;;;;;;5.93;3.25;;;;;;;10.87;72.13;100157.94;5010008;28;20053;-76
2023/04/12 07:41:38;;;;;;;11.23;3.33;;;;;;;10.97;70.83;100148.19;5006539;28;20357;-75
2023/04/12 07:44:03;;;;;;;14.00;3.05;;;;;;;11.07;70.06;100143.69;5008897;28;20058;-77
2023/04/12 07:46:29;;;;;;;6.03;2.58;;;;;;;11.15;69.82;100135.09;5008798;28;20454;-77
2023/04/12 07:48:55;;;;;;;16.42;2.85;;;;;;;11.25;70.08;100139.22;5013558;28;20399;-78
2023/04/12 07:51:20;;;;;;;5.82;2.65;;;;;;;11.40;69.19;100144.63;5006834;28;20041;-77
2023/04/12 07:53:47;;;;;;;8.88;2.65;;;;;;;11.54;68.00;100138.81;5007156;28;20126;-77
2023/04/12 07:56:13;;;;;;;8.85;2.97;;;;;;;11.68;68.24;100147.03;5010274;28;20060;-77
2023/04/12 07:58:39;;;;;;;12.75;3.15;;;;;;;11.77;68.22;100148.72;5004966;28;20050;-77
2023/04/12 08:01:04;;;;;;;7.53;2.53;;;;;;;11.88;68.68;100151.00;5010714;28;20038;-78
2023/04/12 08:03:30;;;;;;;5.60;2.95;;;;;;;11.99;68.91;100152.50;5012380;28;20021;-77
2023/04/12 08:05:55;;;;;;;13.13;2.95;;;;;;;12.07;68.94;100150.72;5009217;28;20085;-76
2023/04/12 08:08:21;;;;;;;9.35;2.90;;;;;;;12.21;69.19;100150.06;5005825;28;20117;-76
2023/04/12 08:10:47;;;;;;;8.20;3.25;;;;;;;12.36;68.65;100150.22;5008853;28;20022;-76
2023/04/12 08:13:13;;;;;;;8.73;2.75;;;;;;;12.47;68.29;100151.69;5003881;28;20051;-76
2023/04/12 08:15:38;;;;;;;9.68;3.42;;;;;;;12.49;68.51;100153.16;5008484;28;20065;-64
2023/04/12 08:18:04;;;;;;;5.68;2.42;;;;;;;12.50;68.29;100159.22;5006260;28;20049;-65
2023/04/12 08:20:30;;;;;;;5.30;2.10;;;;;;;12.45;68.55;100166.72;5003482;28;20121;-67
2023/04/12 08:22:56;;;;;;;5.22;2.28;;;;;;;12.45;68.63;100171.94;4996198;28;20018;-67
2023/04/12 08:25:21;;;;;;;7.20;1.80;;;;;;;12.49;68.80;100174.06;5008665;28;20603;-67
2023/04/12 08:27:49;;;;;;;7.63;2.47;;;;;;;12.59;69.22;100173.91;5008882;28;20502;-67
2023/04/12 08:30:14;;;;;;;7.40;1.98;;;;;;;12.61;68.64;100172.75;5003522;28;20034;-66
2023/04/12 08:32:40;;;;;;;7.55;2.17;;;;;;;12.61;67.81;100182.41;5010579;28;20554;-66
2023/04/12 08:35:06;;;;;;;7.47;1.95;;;;;;;12.68;67.25;100166.88;5001857;28;20048;-65
2023/04/12 08:37:32;;;;;;;7.45;2.80;;;;;;;12.79;66.20;100164.72;5002467;28;20491;-65
2023/04/12 08:39:59;;;;;;;10.57;2.88;;;;;;;12.95;65.93;100169.09;5005789;28;20064;-65
2023/04/12 08:42:25;;;;;;;4.55;1.73;;;;;;;13.06;66.12;100181.00;5006561;28;20369;-65
2023/04/12 08:44:52;;;;;;;2.22;1.83;;;;;;;13.10;65.82;100177.91;5003014;28;20182;-65
2023/04/12 08:47:18;;;;;;;4.13;1.67;;;;;;;13.15;65.35;100180.84;4998776;28;20124;-66
2023/04/12 08:49:44;;;;;;;3.95;1.58;;;;;;;13.19;65.43;100186.56;5002975;28;20025;-66
2023/04/12 08:52:10;;;;;;;2.35;1.40;;;;;;;13.16;65.26;100192.16;4998812;28;20045;-66
2023/04/12 08:54:36;;;;;;;8.20;1.48;;;;;;;13.17;64.92;100184.13;4999043;28;20034;-66
2023/04/12 08:57:07;;;;;;;7.28;1.90;;;;;;;13.20;63.90;100193.44;5005505;28;20048;-66
2023/04/12 08:59:37;;;;;;;2.92;1.20;;;;;;;13.26;63.95;100193.56;5000924;28;20036;-66
2023/04/12 09:02:03;;;;;;;5.18;2.30;;;;;;;13.26;63.93;100200.59;4997456;28;20026;-66
2023/04/12 09:04:29;;;;;;;3.83;1.88;;;;;;;13.15;63.48;100199.13;4995841;28;20026;-66
2023/04/12 09:06:55;;;;;;;6.05;2.60;;;;;;;13.14;63.19;100197.50;4998317;28;20474;-66
2023/04/12 09:09:40;;;;;;;3.85;2.30;;;;;;;13.26;62.01;100190.13;4999222;28;20053;-66
2023/04/12 09:12:06;;;;;;;3.72;2.10;;;;;;;13.44;61.30;100189.91;5003036;28;20517;-66
2023/04/12 09:14:32;;;;;;;4.38;1.80;;;;;;;13.55;61.01;100190.34;5000190;28;20179;-66
2023/04/12 09:16:57;;;;;;;6.13;1.42;;;;;;;13.62;61.80;100185.25;4999608;28;20117;-66
2023/04/12 09:19:41;;;;;;;3.47;1.73;;;;;;;13.58;61.04;100181.34;4996299;28;20023;-66
2023/04/12 09:22:06;;;;;;;2.33;1.10;;;;;;;13.51;58.85;100183.00;5011064;28;20034;-66
2023/04/12 09:24:45;;;;;;;3.22;0.85;;;;;;;13.51;57.10;100180.41;5006129;28;20048;-66
2023/04/12 09:27:10;;;;;;;6.85;1.27;;;;;;;13.59;57.76;100186.41;5003813;28;20490;-66
2023/04/12 09:29:36;;;;;;;2.92;0.98;;;;;;;13.63;56.06;100189.50;5004169;28;20068;-66
2023/04/12 09:32:05;;;;;;;2.80;1.45;;;;;;;13.67;53.90;100174.28;5001839;28;20475;-66
2023/04/12 09:34:32;;;;;;;1.33;0.80;;;;;;;13.64;54.48;100169.38;5007161;28;20042;-65
2023/04/12 09:36:58;;;;;;;3.72;0.90;;;;;;;13.77;53.58;100164.38;4993321;28;20034;-66
2023/04/12 09:39:33;;;;;;;3.92;1.33;;;;;;;13.92;52.08;100162.66;5003386;28;20039;-66
2023/04/12 09:42:10;;;;;;;1.50;0.68;;;;;;;13.87;52.76;100165.81;5003261;28;20030;-65
2023/04/12 09:44:36;;;;;;;3.45;1.15;;;;;;;13.90;53.45;100168.06;4998977;28;20030;-65
2023/04/12 09:47:03;;;;;;;4.05;1.55;;;;;;;13.95;53.90;100168.38;5000464;28;20137;-65
2023/04/12 09:49:42;;;;;;;1.92;0.70;;;;;;;14.05;52.56;100160.28;4998933;28;20047;-65
2023/04/12 09:52:10;;;;;;;2.63;0.90;;;;;;;14.19;51.76;100149.03;5000273;28;20045;-66
2023/04/12 09:54:50;;;;;;;1.58;0.75;;;;;;;14.33;51.32;100138.78;5008108;28;20045;-75
2023/04/12 09:57:22;;;;;;;4.10;0.57;;;;;;;14.41;50.29;100136.09;5006843;28;20092;-74
2023/04/12 09:59:49;;;;;;;1.95;0.80;;;;;;;14.41;50.91;100130.84;5007134;28;20647;-74
2023/04/12 10:02:17;;;;;;;2.90;1.02;;;;;;;14.24;50.41;100128.38;5001828;28;20034;-74
2023/04/12 10:04:43;;;;;;;2.63;0.73;;;;;;;14.34;51.00;100122.88;5003016;28;20062;-74
2023/04/12 10:07:10;;;;;;;2.35;1.02;;;;;;;14.43;49.88;100123.66;5004126;28;20062;-74
2023/04/12 10:09:40;;;;;;;1.95;0.63;;;;;;;14.42;49.26;100128.09;5018999;28;20450;-74
2023/04/12 10:12:07;;;;;;;1.75;0.60;;;;;;;14.49;49.46;100128.19;5010503;28;20471;-74
2023/04/12 10:14:33;;;;;;;1.23;0.68;;;;;;;14.60;49.22;100138.25;5004594;28;20036;-73
2023/04/12 10:17:00;;;;;;;3.28;0.82;;;;;;;14.67;48.53;100141.78;5008990;28;20059;-73
2023/04/12 10:19:28;;;;;;;2.80;0.73;;;;;;;14.73;48.09;100133.19;5004748;28;20489;-74
2023/04/12 10:21:57;;;;;;;4.50;0.60;;;;;;;14.83;48.20;100136.38;5005917;28;20100;-74
2023/04/12 10:24:23;;;;;;;1.95;0.50;;;;;;;14.89;47.74;100135.66;5005101;28;20091;-73
2023/04/12 10:26:54;;;;;;;1.45;0.50;;;;;;;14.99;47.55;100131.97;5009944;28;20042;-72
2023/04/12 10:29:28;;;;;;;1.95;0.60;;;;;;;15.09;46.44;100127.25;5009786;28;20456;-73
2023/04/12 10:31:56;;;;;;;1.80;0.40;;;;;;;15.21;46.85;100126.59;5010210;28;20080;-73
2023/04/12 10:34:30;;;;;;;1.85;0.40;;;;;;;15.24;46.78;100118.34;5007087;28;20065;-78
2023/04/12 10:36:59;;;;;;;1.80;0.60;;;;;;;15.32;46.83;100121.88;5002304;28;20034;-77
2023/04/12 10:39:41;;;;;;;5.63;1.15;;;;;;;15.30;44.30;100111.56;5006387;28;20337;-76
2023/04/12 10:42:29;;;;;;;2.50;0.40;;;;;;;15.43;45.19;100101.22;5005472;28;20048;-78
2023/04/12 10:45:16;;;;;;;1.95;0.50;;;;;;;15.87;46.77;100108.19;5000540;28;20030;-78
2023/04/12 10:47:47;;;;;;;1.65;0.50;;;;;;;16.10;47.50;100106.16;5002679;28;20045;-78
2023/04/12 10:50:25;;;;;;;3.35;0.50;;;;;;;16.13;48.02;100092.63;5008482;28;20036;-77
2023/04/12 10:53:11;;;;;;;4.53;0.60;;;;;;;16.13;47.26;100087.38;5003861;28;20039;-78
2023/04/12 10:55:37;;;;;;;3.03;0.65;;;;;;;16.07;47.48;100082.09;5011087;28;20044;-78
2023/04/12 10:58:02;;;;;;;3.97;0.60;;;;;;;16.29;47.35;100074.97;5010068;28;20462;-78
2023/04/12 11:00:57;;;;;;;2.00;0.52;;;;;;;16.63;46.23;100075.00;5002353;28;20129;-78
2023/04/12 11:03:23;;;;;;;2.95;0.77;;;;;;;16.89;46.97;100079.63;5006966;28;20121;-78
2023/04/12 11:06:03;;;;;;;1.50;0.70;;;;;;;16.68;44.81;100072.63;5008932;28;20045;-78
2023/04/12 11:08:30;;;;;;;1.92;0.65;;;;;;;16.74;45.79;100073.69;5006582;28;20077;-79
2023/04/12 11:11:01;;;;;;;5.05;0.70;;;;;;;16.67;45.56;100085.97;5005583;28;20025;-79
2023/04/12 11:13:27;;;;;;;2.13;0.77;;;;;;;16.59;44.51;100079.00;4997450;28;20396;-79
2023/04/12 11:15:56;;;;;;;4.43;0.70;;;;;;;16.22;44.58;100083.63;5006034;28;20049;-79
2023/04/12 11:18:22;;;;;;;2.50;0.73;;;;;;;15.91;45.22;100073.47;5022147;28;20048;-78
2023/04/12 11:20:51;;;;;;;2.38;0.57;;;;;;;15.77;44.64;100065.63;5008654;28;20402;-79
2023/04/12 11:23:17;;;;;;;2.20;0.70;;;;;;;15.75;44.58;100067.63;5005748;28;20057;-78
2023/04/12 11:25:43;;;;;;;3.20;0.95;;;;;;;15.79;44.81;100069.69;5008151;28;20576;-78
2023/04/12 11:28:08;;;;;;;3.15;0.68;;;;;;;15.81;44.88;100059.00;5008312;28;20046;-78
2023/04/12 11:30:33;;;;;;;1.35;0.70;;;;;;;15.84;45.25;100062.06;5010438;28;20029;-78
2023/04/12 11:32:59;;;;;;;1.58;0.82;;;;;;;15.81;44.94;100065.06;4996141;28;20050;-78